Terminal Aerodrome Forecast
Issued by NWS

Home | Current Version | Previous Version | Text Only | Print | Product List | Glossary Off
Versions: 1 2 3 4 5 6 7 8 9 10 11 12 13 14 15 16 17 18 19 20 21 22 23 24 25

000
FTUS43 KTOP 222320
TAFFOE
TAF
KFOE 222320Z 2300/2324 VRB03KT 2SM -DZ OVC003
     FM230500 31004KT 2SM BR OVC004
     FM231800 31004KT 6SM BR SCT002 BKN010
     FM232100 04005KT P6SM SCT010=

USA.gov is the U.S. government's official web portal to all federal, state and local government web resources and services.